Etusivu
METAR-TAF:

METAR-TAF

Lentoasemat :

Oscoda-Wurtsmith Airport

Oscoda, Michigan, Yhdysvallat

Leveyspiiri: 44-27N, Pituuspiiri: 083-22W, korkeus merenpinnasta: 193 m

Tämänhetkinen sää

Tämä raportti tehtiin 19 minuuttia sitten, kello 14.56 UTC
Tuuli 12 kn lännestä puuskistuen 19 kn:hen
Lämpötila 8°C
Kosteus 71%
Ilmanpaine 1014 hPa
Näkyvyys: 16.1 km
selkeää

METAR: KOSC 141456Z AUTO 27012G19KT 10SM CLR 08/03 A2995 RMK AO2 T00800028

Aika: 11:15 (15:15 UTC)


TAF: puuttuu

Säähavainnot ja -ennusteet yli 4000 lentoasemalta (METAR- ja TAF-raportit).

Käytössä olevat sääasemat on merkitty karttaan keltaisilla ja punaisilla pisteillä.

Aseta hiiri pisteen päälle nähdäksesi sääaseman nimen.

Klikkaa sitten nähdäksesi säähavainnot ja -ennusteet.

Kartan vaihtaminen: klikkaa mustalla rastilla varustettuja vihreitä pisteitä, niin voit zoomata sisään; viivalla varustettua vihreää pistettä, niin voit zoomata ulos tai vihreitä nuolia, niin pääset viereisille kartoille.


METAR-TAF: